Time;durP1;ratioP1;P1;durP2;ratioP2;P2;SDS_P1;SDS_P2;PMS_P1;PMS_P2;Temp;Humidity;BMP_temperature;BMP_pressure;BME280_temperature;BME280_humidity;BME280_pressure;Samples;Min_cycle;Max_cycle;Signal;HPM_P1;HPM_P2
2022/09/10 00:01:02;;;;;;;;;;;13.10;99.90;;;12.04;100.00;95635.59;10491302;28;2999;-70
2022/09/10 00:06:06;;;;;;;;;;;13.10;99.90;;;12.10;100.00;95626.38;10470330;28;2894;-71
2022/09/10 00:11:10;;;;;;;;;;;13.10;99.90;;;12.10;100.00;95624.47;10489871;28;2899;-70
2022/09/10 00:16:13;;;;;;;;;;;13.10;99.90;;;12.08;100.00;95613.16;10468813;28;2927;-73
2022/09/10 00:21:17;;;;;;;;;;;13.00;99.90;;;12.08;100.00;95631.22;10509543;28;2366;-71
2022/09/10 00:26:22;;;;;;;;;;;13.10;99.90;;;12.34;100.00;95629.03;10478140;28;2957;-71
2022/09/10 00:31:26;;;;;;;;;;;13.20;99.90;;;12.38;100.00;95620.09;10488717;28;2342;-71
2022/09/10 00:36:28;;;;;;;;;;;13.30;99.90;;;12.26;100.00;95613.50;10492292;28;2968;-71
2022/09/10 00:41:32;;;;;;;;;;;13.30;99.90;;;12.19;100.00;95619.25;10469449;28;2549;-71
2022/09/10 00:46:36;;;;;;;;;;;13.30;99.90;;;12.05;100.00;95621.84;10469480;28;2337;-70
2022/09/10 00:51:40;;;;;;;;;;;13.10;99.90;;;12.09;100.00;95611.31;10488996;28;2919;-70
2022/09/10 00:56:44;;;;;;;;;;;13.20;99.90;;;12.03;100.00;95596.28;10484438;28;2284;-70
2022/09/10 01:01:48;;;;;;;;;;;13.10;99.90;;;11.97;100.00;95594.72;10463542;28;3240;-71
2022/09/10 01:06:51;;;;;;;;;;;13.00;99.90;;;11.91;100.00;95596.69;10482686;28;2316;-72
2022/09/10 01:11:54;;;;;;;;;;;13.00;99.90;;;11.90;100.00;95603.16;10487205;28;2343;-75
2022/09/10 01:16:57;;;;;;;;;;;12.90;99.90;;;12.04;100.00;95597.88;10485787;28;2939;-74
2022/09/10 01:22:01;;;;;;;;;;;13.00;99.90;;;12.04;100.00;95598.69;10471063;28;2959;-73
2022/09/10 01:27:06;;;;;;;;;;;13.00;99.90;;;12.12;100.00;95594.53;10487566;28;2968;-75
2022/09/10 01:32:09;;;;;;;;;;;13.10;99.90;;;12.32;100.00;95586.22;10486955;28;2898;-71
2022/09/10 01:37:13;;;;;;;;;;;13.20;99.90;;;12.43;100.00;95590.38;10485441;28;2960;-72
2022/09/10 01:42:16;;;;;;;;;;;13.20;99.90;;;12.60;100.00;95575.63;10485368;28;2897;-74
2022/09/10 01:47:19;;;;;;;;;;;13.40;99.90;;;12.64;100.00;95569.34;10490625;28;2862;-74
2022/09/10 01:52:24;;;;;;;;;;;13.40;99.90;;;12.70;100.00;95570.06;10470123;28;3049;-71
2022/09/10 01:57:28;;;;;;;;;;;13.50;99.90;;;12.77;100.00;95570.50;10468148;28;2929;-70
2022/09/10 02:02:32;;;;;;;;;;;13.70;99.90;;;12.74;100.00;95563.00;10486665;28;2301;-69
2022/09/10 02:07:38;;;;;;;;;;;13.70;99.90;;;12.72;100.00;95554.38;10483510;28;2363;-70
2022/09/10 02:12:41;;;;;;;;;;;13.70;99.90;;;12.67;100.00;95557.19;10486724;28;2348;-70
2022/09/10 02:17:55;;;;;;;;;;;13.70;99.90;;;12.61;100.00;95559.16;10486589;28;2850;-70
2022/09/10 02:22:59;;;;;;;;;;;13.60;99.90;;;12.59;100.00;95560.50;10486183;28;2918;-70
2022/09/10 02:28:03;;;;;;;;;;;13.60;99.90;;;12.57;100.00;95554.63;10486565;28;2939;-69
2022/09/10 02:33:06;;;;;;;;;;;13.60;99.90;;;12.58;100.00;95556.22;10485337;28;2828;-69
2022/09/10 02:38:15;;;;;;;;;;;13.60;99.90;;;12.54;100.00;95550.63;10494423;28;2896;-70
2022/09/10 02:43:18;;;;;;;;;;;13.50;99.90;;;12.39;100.00;95557.00;10494115;28;2895;-71
2022/09/10 02:48:25;;;;;;;;;;;13.40;99.90;;;12.26;100.00;95555.03;10477346;28;2314;-69
2022/09/10 02:53:30;;;;;;;;;;;13.30;99.90;;;12.10;100.00;95553.63;10488243;28;3006;-71
2022/09/10 02:58:33;;;;;;;;;;;13.20;99.90;;;12.01;100.00;95555.34;10495144;28;2940;-71
2022/09/10 03:03:38;;;;;;;;;;;13.10;99.90;;;11.89;100.00;95553.03;10471080;28;2328;-71
2022/09/10 03:08:41;;;;;;;;;;;13.00;99.90;;;11.80;100.00;95550.16;10471288;28;2344;-70
2022/09/10 03:13:45;;;;;;;;;;;12.90;99.90;;;11.76;100.00;95551.00;10466737;28;2849;-70
2022/09/10 03:18:48;;;;;;;;;;;12.80;99.90;;;11.61;100.00;95555.47;10475506;28;2947;-71
2022/09/10 03:23:51;;;;;;;;;;;12.70;99.90;;;11.63;100.00;95549.81;10504860;28;2356;-72
2022/09/10 03:28:55;;;;;;;;;;;12.70;99.90;;;11.54;100.00;95551.53;10491569;28;2333;-70
2022/09/10 03:33:58;;;;;;;;;;;12.70;99.90;;;11.48;100.00;95564.22;10493661;28;3072;-67
2022/09/10 03:39:01;;;;;;;;;;;12.60;99.90;;;11.61;100.00;95557.38;10474626;28;2299;-71
2022/09/10 03:44:05;;;;;;;;;;;12.60;99.90;;;11.67;100.00;95556.22;10490602;28;2906;-69
2022/09/10 03:49:08;;;;;;;;;;;12.60;99.90;;;11.78;100.00;95552.34;10489339;28;2925;-71
2022/09/10 03:54:13;;;;;;;;;;;12.70;99.90;;;11.84;100.00;95550.44;10486176;28;3081;-70
2022/09/10 03:59:19;;;;;;;;;;;12.80;99.90;;;11.96;100.00;95544.63;10492564;28;2854;-70
2022/09/10 04:04:22;;;;;;;;;;;12.90;99.90;;;12.17;100.00;95541.41;10490868;28;3023;-70
2022/09/10 04:09:25;;;;;;;;;;;13.00;99.90;;;12.42;100.00;95542.97;10475517;28;2986;-68
2022/09/10 04:14:28;;;;;;;;;;;13.20;99.90;;;12.42;100.00;95544.84;10472005;28;2836;-69
2022/09/10 04:19:31;;;;;;;;;;;13.40;99.90;;;12.45;100.00;95539.66;10471490;28;2926;-69
2022/09/10 04:24:35;;;;;;;;;;;13.40;99.90;;;12.52;100.00;95546.59;10488818;28;2915;-70
2022/09/10 04:29:38;;;;;;;;;;;13.40;99.90;;;12.53;100.00;95546.31;10486333;28;3021;-69
2022/09/10 04:34:41;;;;;;;;;;;13.40;99.90;;;12.54;100.00;95544.44;10484732;28;2945;-71
2022/09/10 04:39:44;;;;;;;;;;;13.40;99.90;;;12.57;100.00;95546.53;10486591;28;2861;-71
2022/09/10 04:44:47;;;;;;;;;;;13.50;99.90;;;12.67;100.00;95551.78;10483817;28;2341;-70
2022/09/10 04:49:50;;;;;;;;;;;13.50;99.90;;;12.77;100.00;95546.22;10489346;28;2967;-77
2022/09/10 04:54:53;;;;;;;;;;;13.50;99.90;;;12.94;100.00;95554.59;10485972;28;2894;-73
2022/09/10 04:59:56;;;;;;;;;;;13.70;99.90;;;13.14;100.00;95548.09;10480332;28;2291;-75
2022/09/10 05:04:58;;;;;;;;;;;13.80;99.90;;;13.23;100.00;95551.75;10472577;28;2903;-69
2022/09/10 05:10:01;;;;;;;;;;;14.00;99.90;;;13.24;100.00;95550.66;10482554;28;2901;-70
2022/09/10 05:15:04;;;;;;;;;;;14.10;99.90;;;13.25;100.00;95562.25;10477718;28;3052;-68
2022/09/10 05:20:07;;;;;;;;;;;14.10;99.90;;;13.22;100.00;95560.13;10484845;28;2863;-68
2022/09/10 05:25:10;;;;;;;;;;;14.10;99.90;;;13.25;100.00;95557.66;10481006;28;2922;-69
2022/09/10 05:30:13;;;;;;;;;;;14.10;99.90;;;13.35;100.00;95556.66;10482499;28;2317;-70
2022/09/10 05:35:17;;;;;;;;;;;14.10;99.90;;;13.46;100.00;95563.50;10481122;28;2899;-71
2022/09/10 05:40:21;;;;;;;;;;;14.30;99.90;;;13.61;100.00;95567.03;10481860;28;2957;-69
2022/09/10 05:45:24;;;;;;;;;;;14.40;99.90;;;13.63;100.00;95572.94;10484200;28;2935;-69
2022/09/10 05:50:29;;;;;;;;;;;14.40;99.90;;;13.58;100.00;95578.44;10482080;28;2368;-68
2022/09/10 05:55:32;;;;;;;;;;;14.40;99.90;;;13.66;100.00;95578.53;10486945;28;3049;-68
2022/09/10 06:00:35;;;;;;;;;;;14.50;99.90;;;13.77;100.00;95582.66;10485241;28;2874;-69
2022/09/10 06:05:37;;;;;;;;;;;14.60;99.90;;;13.78;100.00;95591.56;10484147;28;3030;-68
2022/09/10 06:10:40;;;;;;;;;;;14.50;99.90;;;13.89;100.00;95594.91;10481729;28;2313;-68
2022/09/10 06:15:43;;;;;;;;;;;14.60;99.90;;;13.84;100.00;95606.59;10483467;28;2901;-69
2022/09/10 06:20:46;;;;;;;;;;;14.70;99.90;;;13.63;100.00;95621.56;10483944;28;2343;-69
2022/09/10 06:25:49;;;;;;;;;;;14.70;99.90;;;12.73;100.00;95639.63;10483488;28;2978;-71
2022/09/10 06:30:52;;;;;;;;;;;14.10;99.90;;;12.27;100.00;95640.16;10485286;28;2955;-73
2022/09/10 06:35:55;;;;;;;;;;;13.40;99.90;;;12.15;100.00;95659.47;10481447;28;2936;-72
2022/09/10 06:40:59;;;;;;;;;;;13.10;99.90;;;12.13;100.00;95672.41;10483034;28;3011;-72
2022/09/10 06:46:04;;;;;;;;;;;13.00;99.90;;;12.10;100.00;95681.06;10485608;28;2392;-71
2022/09/10 06:51:07;;;;;;;;;;;13.00;99.90;;;12.13;100.00;95672.41;10479994;28;2351;-70
2022/09/10 06:56:10;;;;;;;;;;;13.00;99.90;;;12.08;100.00;95668.94;10483601;28;2915;-71
2022/09/10 07:01:14;;;;;;;;;;;12.90;99.90;;;12.07;100.00;95664.66;10482553;28;3185;-71
2022/09/10 07:06:18;;;;;;;;;;;13.00;99.90;;;12.18;100.00;95663.47;10464586;28;2391;-74
2022/09/10 07:11:20;;;;;;;;;;;13.00;99.90;;;12.31;100.00;95668.16;10485922;28;2388;-71
2022/09/10 07:16:23;;;;;;;;;;;13.00;99.90;;;12.57;100.00;95665.16;10484127;28;3001;-72
2022/09/10 07:21:26;;;;;;;;;;;13.20;99.90;;;12.86;100.00;95663.19;10493985;28;2921;-72
2022/09/10 07:26:29;;;;;;;;;;;13.40;99.90;;;13.09;100.00;95672.28;10479621;28;2418;-73
2022/09/10 07:31:37;;;;;;;;;;;13.70;99.90;;;13.39;100.00;95671.09;10492295;28;2363;-72
2022/09/10 07:36:40;;;;;;;;;;;13.90;99.90;;;13.76;100.00;95669.41;10491163;28;2883;-72
2022/09/10 07:41:42;;;;;;;;;;;14.20;99.90;;;13.96;100.00;95657.44;10487525;28;2280;-72
2022/09/10 07:46:46;;;;;;;;;;;14.50;99.90;;;14.54;100.00;95665.84;10490697;28;2936;-73
2022/09/10 07:51:53;;;;;;;;;;;14.80;99.90;;;14.73;100.00;95660.31;10490419;28;2304;-73
2022/09/10 07:57:02;;;;;;;;;;;15.10;99.90;;;15.31;100.00;95666.91;10482495;28;2634;-72
2022/09/10 08:02:06;;;;;;;;;;;15.40;99.90;;;15.65;100.00;95666.44;10484276;28;2344;-71
2022/09/10 08:07:09;;;;;;;;;;;15.90;99.90;;;15.07;100.00;95670.66;10482495;28;2981;-74
2022/09/10 08:12:12;;;;;;;;;;;15.80;99.90;;;14.92;100.00;95676.44;10486009;28;2868;-71
2022/09/10 08:17:14;;;;;;;;;;;15.70;99.90;;;14.28;100.00;95692.53;10488916;28;2374;-74
2022/09/10 08:22:19;;;;;;;;;;;15.30;99.90;;;13.92;100.00;95703.16;10489773;28;2371;-77
2022/09/10 08:27:22;;;;;;;;;;;15.00;99.90;;;13.96;100.00;95700.69;10472864;28;2873;-72
2022/09/10 08:32:26;;;;;;;;;;;14.80;99.90;;;14.19;100.00;95701.66;10485094;28;2935;-71
2022/09/10 08:37:29;;;;;;;;;;;14.90;99.90;;;14.31;100.00;95704.66;10489319;28;2355;-72
2022/09/10 08:42:32;;;;;;;;;;;15.00;99.90;;;14.77;100.00;95706.53;10488397;28;2887;-73
2022/09/10 08:47:35;;;;;;;;;;;15.10;99.90;;;15.57;100.00;95705.84;10484477;28;2883;-72
2022/09/10 08:52:38;;;;;;;;;;;15.60;99.90;;;15.84;100.00;95704.97;10485354;28;2965;-71
2022/09/10 08:57:41;;;;;;;;;;;16.20;99.90;;;15.79;100.00;95701.59;10484286;28;2291;-71
2022/09/10 09:02:44;;;;;;;;;;;16.40;99.90;;;16.04;100.00;95702.88;10473815;28;3025;-72
2022/09/10 09:07:51;;;;;;;;;;;16.50;99.90;;;16.22;100.00;95712.69;10489631;28;2919;-72
2022/09/10 09:12:54;;;;;;;;;;;16.60;99.90;;;17.07;100.00;95712.59;10482036;28;3333;-73
2022/09/10 09:18:00;;;;;;;;;;;17.10;99.90;;;17.27;100.00;95701.13;10482057;28;2933;-74
2022/09/10 09:23:03;;;;;;;;;;;17.60;99.90;;;17.58;100.00;95689.31;10483343;28;2964;-71
2022/09/10 09:28:07;;;;;;;;;;;17.90;99.90;;;17.04;100.00;95695.00;10488342;28;2877;-70
2022/09/10 09:33:10;;;;;;;;;;;17.90;99.90;;;17.70;100.00;95682.09;10484767;28;2886;-70
2022/09/10 09:38:13;;;;;;;;;;;18.00;99.90;;;17.93;100.00;95684.66;10468780;28;2316;-69
2022/09/10 09:43:15;;;;;;;;;;;18.30;99.90;;;17.61;100.00;95677.78;10482737;28;2393;-69
2022/09/10 09:48:19;;;;;;;;;;;18.30;99.90;;;17.14;100.00;95680.31;10483303;28;2861;-72
2022/09/10 09:53:21;;;;;;;;;;;18.00;99.90;;;17.27;100.00;95682.09;10485847;28;2902;-71
2022/09/10 09:58:25;;;;;;;;;;;18.00;99.90;;;17.11;100.00;95684.44;10467623;28;2983;-69
2022/09/10 10:03:27;;;;;;;;;;;17.90;99.90;;;17.50;100.00;95671.88;10481395;28;2310;-69
2022/09/10 10:08:30;;;;;;;;;;;18.00;99.90;;;17.47;100.00;95667.88;10485569;28;3033;-72
2022/09/10 10:13:33;;;;;;;;;;;18.10;99.90;;;17.16;100.00;95678.09;10485206;28;2867;-73
2022/09/10 10:18:36;;;;;;;;;;;18.00;99.90;;;16.48;100.00;95672.94;10464160;28;2331;-75
2022/09/10 10:23:39;;;;;;;;;;;17.60;99.90;;;16.71;100.00;95662.81;10486639;28;2963;-71
2022/09/10 10:28:42;;;;;;;;;;;17.40;99.90;;;17.66;100.00;95664.03;10485048;28;2854;-70
2022/09/10 10:33:45;;;;;;;;;;;18.00;99.90;;;17.74;100.00;95664.03;10480423;28;2838;-72
2022/09/10 10:38:48;;;;;;;;;;;18.20;99.90;;;18.21;100.00;95652.44;10462058;28;2954;-70
2022/09/10 10:43:51;;;;;;;;;;;18.60;99.90;;;18.55;100.00;95654.22;10482997;28;2911;-70
2022/09/10 10:48:54;;;;;;;;;;;18.90;99.90;;;19.17;97.52;95642.69;10482806;28;2901;-71
2022/09/10 10:54:02;;;;;;;;;;;19.30;99.90;;;19.34;99.30;95631.69;10486553;28;2830;-71
2022/09/10 10:59:05;;;;;;;;;;;19.90;99.90;;;19.68;98.28;95632.53;10491912;28;2877;-68
2022/09/10 11:04:08;;;;;;;;;;;20.20;99.90;;;19.02;95.19;95625.03;10483729;28;2963;-71
2022/09/10 11:09:12;;;;;;;;;;;19.90;99.90;;;18.57;99.30;95638.38;10486415;28;2980;-71
2022/09/10 11:14:15;;;;;;;;;;;19.60;99.90;;;19.29;94.03;95631.09;10490701;28;2953;-70
2022/09/10 11:19:18;;;;;;;;;;;19.60;99.90;;;19.61;91.22;95624.91;10493621;28;2957;-70
2022/09/10 11:24:20;;;;;;;;;;;20.00;99.90;;;19.82;89.62;95633.03;10489090;28;2947;-70
2022/09/10 11:29:24;;;;;;;;;;;20.20;99.90;;;20.23;84.88;95636.78;10495624;28;2899;-68
2022/09/10 11:34:26;;;;;;;;;;;20.50;99.90;;;20.37;77.79;95626.34;10489671;28;2913;-69
2022/09/10 11:39:29;;;;;;;;;;;20.80;99.90;;;19.76;78.38;95628.13;10487242;28;2403;-69
2022/09/10 11:44:33;;;;;;;;;;;20.70;99.90;;;19.43;81.67;95626.94;10489879;28;2982;-67
2022/09/10 11:49:39;;;;;;;;;;;20.40;99.90;;;18.85;82.27;95612.31;10490414;28;2368;-70
2022/09/10 11:54:41;;;;;;;;;;;19.70;99.90;;;18.81;85.21;95597.75;10489933;28;2855;-70
2022/09/10 11:59:44;;;;;;;;;;;19.70;99.90;;;18.99;83.42;95616.72;10489237;28;2966;-68
2022/09/10 12:04:47;;;;;;;;;;;19.60;99.90;;;19.44;76.17;95612.19;10482594;28;3077;-69
2022/09/10 12:09:50;;;;;;;;;;;20.10;99.90;;;19.32;77.47;95623.03;10488858;28;2862;-69
2022/09/10 12:14:53;;;;;;;;;;;20.10;99.90;;;18.48;73.89;95604.97;10484838;28;3018;-75
2022/09/10 12:19:55;;;;;;;;;;;19.60;99.90;;;18.21;75.67;95608.94;10489184;28;2376;-69
2022/09/10 12:24:58;;;;;;;;;;;19.20;99.90;;;18.26;75.94;95606.81;10488738;28;3310;-74
2022/09/10 12:30:01;;;;;;;;;;;19.10;99.90;;;18.64;75.76;95604.06;10488416;28;2343;-68
2022/09/10 12:35:04;;;;;;;;;;;19.30;99.90;;;18.84;79.67;95594.38;10487496;28;2395;-69
2022/09/10 12:40:07;;;;;;;;;;;19.60;99.90;;;19.24;75.78;95602.09;10483712;28;3051;-71
2022/09/10 12:45:18;;;;;;;;;;;19.80;99.90;;;18.86;78.12;95594.84;10468379;28;2889;-70
2022/09/10 12:50:21;;;;;;;;;;;19.70;99.90;;;18.94;76.36;95601.34;10487493;28;2974;-70
2022/09/10 12:55:27;;;;;;;;;;;19.60;99.90;;;19.36;74.54;95587.72;10486211;28;2721;-73
2022/09/10 13:00:30;;;;;;;;;;;19.80;99.90;;;19.41;71.10;95585.59;10488014;28;2914;-69
2022/09/10 13:05:33;;;;;;;;;;;20.00;99.90;;;19.53;74.65;95586.75;10481802;28;2392;-69
2022/09/10 13:10:36;;;;;;;;;;;20.10;99.90;;;19.50;70.86;95579.28;10485207;28;2907;-69
2022/09/10 13:15:40;;;;;;;;;;;20.10;99.90;;;19.63;69.83;95583.66;10479105;28;2300;-69
2022/09/10 13:20:43;;;;;;;;;;;20.30;99.90;;;19.35;68.52;95576.03;10474625;28;2917;-69
2022/09/10 13:25:47;;;;;;;;;;;20.10;99.90;;;18.97;73.22;95575.38;10485998;28;2839;-68
2022/09/10 13:30:50;;;;;;;;;;;19.80;99.90;;;19.04;71.27;95581.09;10485168;28;2497;-70
2022/09/10 13:35:53;;;;;;;;;;;19.70;99.90;;;19.12;70.38;95574.78;10482046;28;2913;-69
2022/09/10 13:40:56;;;;;;;;;;;19.70;99.90;;;19.28;66.20;95575.78;10484842;28;2875;-70
2022/09/10 13:45:59;;;;;;;;;;;19.90;99.90;;;19.53;66.25;95571.22;10484640;28;2327;-69
2022/09/10 13:51:03;;;;;;;;;;;20.00;99.90;;;18.99;71.91;95564.94;10485886;28;2419;-70
2022/09/10 13:56:07;;;;;;;;;;;19.80;99.90;;;19.10;71.54;95558.78;10486013;28;2904;-69
2022/09/10 14:01:15;;;;;;;;;;;19.60;99.90;;;19.14;69.07;95564.34;10485563;28;2905;-70
2022/09/10 14:06:20;;;;;;;;;;;19.90;99.90;;;19.54;69.63;95569.28;10484819;28;2384;-70
2022/09/10 14:11:22;;;;;;;;;;;20.00;99.90;;;19.84;68.96;95559.06;10484440;28;2968;-68
2022/09/10 14:16:25;;;;;;;;;;;20.30;99.90;;;19.75;69.89;95561.88;10482540;28;2943;-69
2022/09/10 14:21:32;;;;;;;;;;;;;;;20.20;71.32;95552.88;10484361;28;2292;-65
2022/09/10 14:26:36;;;;;;;;;;;20.60;99.90;;;20.24;70.66;95551.06;10481483;28;2532;-64
2022/09/10 14:31:39;;;;;;;;;;;20.60;99.90;;;20.86;66.67;95538.16;10492721;28;2893;-64
2022/09/10 14:36:42;;;;;;;;;;;21.20;99.90;;;20.25;60.58;95537.06;10491826;28;2375;-67
2022/09/10 14:41:46;;;;;;;;;;;21.10;99.90;;;20.05;60.40;95531.72;10487166;28;2323;-67
2022/09/10 14:46:49;;;;;;;;;;;20.80;99.90;;;19.96;61.16;95538.03;10491013;28;2921;-68
2022/09/10 14:51:52;;;;;;;;;;;20.70;99.90;;;19.89;61.80;95540.53;10490705;28;2335;-69
2022/09/10 14:56:55;;;;;;;;;;;20.60;99.90;;;19.57;62.72;95541.34;10490742;28;2890;-68
2022/09/10 15:01:58;;;;;;;;;;;20.40;99.90;;;19.25;64.37;95549.19;10491364;28;2933;-68
2022/09/10 15:07:01;;;;;;;;;;;20.10;99.90;;;19.09;65.90;95546.28;10487562;28;2902;-75
2022/09/10 15:12:04;;;;;;;;;;;;;;;18.90;66.18;95546.75;10485577;28;2874;-73
2022/09/10 15:17:07;;;;;;;;;;;19.90;99.90;;;18.71;69.41;95546.41;10469249;28;2978;-74
2022/09/10 15:22:11;;;;;;;;;;;19.70;99.90;;;18.27;70.64;95547.75;10486495;28;2902;-75
2022/09/10 15:27:18;;;;;;;;;;;19.40;99.90;;;18.06;74.60;95564.00;10484192;28;2883;-74
2022/09/10 15:32:21;;;;;;;;;;;18.80;99.90;;;17.46;87.96;95605.69;10483371;28;2910;-70
2022/09/10 15:37:26;;;;;;;;;;;;;;;14.07;100.00;95634.56;10482143;28;2991;-71
2022/09/10 15:42:30;;;;;;;;;;;16.40;99.90;;;13.33;100.00;95634.47;10483103;28;2953;-71
2022/09/10 15:47:33;;;;;;;;;;;14.70;99.90;;;13.35;100.00;95642.25;10482364;28;2339;-72
2022/09/10 15:52:36;;;;;;;;;;;14.20;99.90;;;13.65;100.00;95657.16;10469258;28;2329;-72
2022/09/10 15:57:39;;;;;;;;;;;14.30;99.90;;;14.04;100.00;95645.94;10480097;28;2906;-74
2022/09/10 16:02:46;;;;;;;;;;;14.50;99.90;;;14.31;100.00;95642.47;10483216;28;2764;-73
2022/09/10 16:07:55;;;;;;;;;;;14.80;99.90;;;14.23;100.00;95632.34;10464603;28;2873;-73
2022/09/10 16:12:58;;;;;;;;;;;15.00;99.90;;;14.47;100.00;95632.97;10480296;28;2925;-71
2022/09/10 16:18:01;;;;;;;;;;;15.10;99.90;;;14.53;100.00;95623.66;10481246;28;2320;-72
2022/09/10 16:23:04;;;;;;;;;;;15.10;99.90;;;14.48;100.00;95626.47;10482182;28;2273;-72
2022/09/10 16:28:07;;;;;;;;;;;15.20;99.90;;;14.30;100.00;95630.03;10487677;28;2696;-72
2022/09/10 16:33:10;;;;;;;;;;;15.10;99.90;;;14.18;100.00;95622.44;10488159;28;2653;-73
2022/09/10 16:38:13;;;;;;;;;;;15.10;99.90;;;14.16;100.00;95634.66;10485989;28;3120;-72
2022/09/10 16:43:15;;;;;;;;;;;15.10;99.90;;;14.04;100.00;95624.31;10484941;28;2618;-76
2022/09/10 16:48:18;;;;;;;;;;;15.00;99.90;;;14.24;100.00;95613.13;10487701;28;2674;-73
2022/09/10 16:53:22;;;;;;;;;;;15.00;99.90;;;14.43;100.00;95610.31;10485485;28;3194;-75
2022/09/10 16:58:24;;;;;;;;;;;15.10;99.90;;;14.38;100.00;95605.03;10493015;28;2714;-74
2022/09/10 17:03:28;;;;;;;;;;;15.20;99.90;;;14.28;100.00;95606.03;10469879;28;2683;-74
2022/09/10 17:08:32;;;;;;;;;;;15.10;99.90;;;14.05;100.00;95618.63;10487714;28;2754;-74
2022/09/10 17:13:35;;;;;;;;;;;15.10;99.90;;;13.67;100.00;95619.84;10482496;28;2737;-74
2022/09/10 17:18:38;;;;;;;;;;;14.80;99.90;;;13.43;100.00;95612.72;10484849;28;2738;-75
2022/09/10 17:23:42;;;;;;;;;;;14.60;99.90;;;13.25;100.00;95619.72;10486359;28;2750;-75
2022/09/10 17:28:46;;;;;;;;;;;;;;;13.10;100.00;95619.91;10467290;28;2713;-74
2022/09/10 17:33:48;;;;;;;;;;;14.20;99.90;;;13.01;100.00;95618.19;10480893;28;2713;-73
2022/09/10 17:38:52;;;;;;;;;;;14.10;99.90;;;12.96;100.00;95619.84;10487703;28;2754;-73
2022/09/10 17:43:55;;;;;;;;;;;14.20;99.90;;;13.00;100.00;95622.78;10482470;28;3195;-73
2022/09/10 17:48:59;;;;;;;;;;;14.20;99.90;;;13.02;100.00;95633.28;10484432;28;2632;-73
2022/09/10 17:54:02;;;;;;;;;;;13.80;99.90;;;13.08;100.00;95645.59;10485759;28;2987;-73
2022/09/10 17:59:05;;;;;;;;;;;14.10;99.90;;;13.18;100.00;95637.38;10489386;28;2718;-73
2022/09/10 18:04:08;;;;;;;;;;;14.10;99.90;;;13.09;100.00;95642.59;10483117;28;2721;-73
2022/09/10 18:09:11;;;;;;;;;;;14.20;99.90;;;13.02;100.00;95652.16;10481757;28;2562;-74
2022/09/10 18:14:14;;;;;;;;;;;14.30;99.90;;;12.91;100.00;95655.00;10481199;28;3219;-72
2022/09/10 18:19:19;;;;;;;;;;;14.00;99.90;;;12.87;100.00;95667.47;10484092;28;2557;-73
2022/09/10 18:24:23;;;;;;;;;;;14.00;99.90;;;12.87;100.00;95670.19;10484296;28;3132;-72
2022/09/10 18:29:27;;;;;;;;;;;13.90;99.90;;;12.88;100.00;95668.28;10482451;28;2754;-71
2022/09/10 18:34:29;;;;;;;;;;;13.90;99.90;;;12.86;100.00;95673.97;10483004;28;2820;-72
2022/09/10 18:39:32;;;;;;;;;;;13.90;99.90;;;12.89;100.00;95681.47;10480753;28;2640;-73
2022/09/10 18:44:36;;;;;;;;;;;13.90;99.90;;;12.89;100.00;95689.56;10482598;28;2578;-73
2022/09/10 18:49:39;;;;;;;;;;;13.70;99.90;;;12.86;100.00;95679.38;10479434;28;2680;-73
2022/09/10 18:54:42;;;;;;;;;;;13.80;99.90;;;12.80;100.00;95687.81;10480539;28;2614;-74
2022/09/10 18:59:48;;;;;;;;;;;13.80;99.90;;;12.75;100.00;95694.06;10469707;28;2653;-77
2022/09/10 19:04:51;;;;;;;;;;;13.80;99.90;;;12.73;100.00;95690.88;10481981;28;2674;-74
2022/09/10 19:10:14;;;;;;;;;;;13.60;99.90;;;12.70;100.00;95688.72;10481991;28;3245;-73
2022/09/10 19:15:19;;;;;;;;;;;13.70;99.90;;;12.85;100.00;95699.34;10485647;28;2610;-73
2022/09/10 19:20:25;;;;;;;;;;;13.80;99.90;;;13.00;100.00;95701.03;10487626;28;2593;-73
2022/09/10 19:25:28;;;;;;;;;;;13.80;99.90;;;13.13;100.00;95705.72;10487858;28;2742;-75
2022/09/10 19:30:31;;;;;;;;;;;13.90;99.90;;;13.17;100.00;95716.75;10489052;28;2614;-74
2022/09/10 19:35:37;;;;;;;;;;;14.00;99.90;;;13.12;100.00;95739.19;10486621;28;2577;-73
2022/09/10 19:40:40;;;;;;;;;;;14.10;99.90;;;12.84;100.00;95740.88;10489972;28;3213;-71
2022/09/10 19:45:43;;;;;;;;;;;13.90;99.90;;;12.55;100.00;95748.25;10468090;28;3148;-72
2022/09/10 19:50:46;;;;;;;;;;;13.50;99.90;;;12.47;100.00;95740.78;10487263;28;3258;-72
2022/09/10 19:55:48;;;;;;;;;;;13.40;99.90;;;12.56;100.00;95739.06;10488078;28;2742;-74
2022/09/10 20:00:51;;;;;;;;;;;13.30;99.90;;;12.49;100.00;95731.31;10484794;28;2895;-73
2022/09/10 20:05:54;;;;;;;;;;;13.40;99.90;;;12.48;100.00;95734.31;10474937;28;2866;-73
2022/09/10 20:10:57;;;;;;;;;;;13.40;99.90;;;12.47;100.00;95729.97;10482449;28;2814;-71
2022/09/10 20:16:00;;;;;;;;;;;13.30;99.90;;;12.31;100.00;95727.47;10479200;28;3250;-71
2022/09/10 20:21:03;;;;;;;;;;;13.30;99.90;;;12.35;100.00;95733.91;10466415;28;2685;-71
2022/09/10 20:26:08;;;;;;;;;;;;;;;12.47;100.00;95736.22;10483487;28;2745;-70
2022/09/10 20:31:10;;;;;;;;;;;13.30;99.90;;;12.47;100.00;95733.50;10485194;28;3129;-72
2022/09/10 20:36:13;;;;;;;;;;;13.30;99.90;;;12.51;100.00;95731.03;10468851;28;3147;-74
2022/09/10 20:41:16;;;;;;;;;;;13.40;99.90;;;12.59;100.00;95733.88;10487065;28;2606;-72
2022/09/10 20:46:20;;;;;;;;;;;13.50;99.90;;;12.63;100.00;95747.63;10462030;28;2920;-70
2022/09/10 20:51:23;;;;;;;;;;;13.40;99.90;;;12.60;100.00;95738.22;10462843;28;2717;-71
2022/09/10 20:56:26;;;;;;;;;;;13.50;99.90;;;12.56;100.00;95745.25;10480187;28;3244;-71
2022/09/10 21:01:29;;;;;;;;;;;13.50;99.90;;;12.64;100.00;95741.13;10485967;28;2764;-74
2022/09/10 21:06:33;;;;;;;;;;;13.50;99.90;;;12.68;100.00;95745.66;10484113;28;3243;-73
2022/09/10 21:11:36;;;;;;;;;;;;;;;12.61;100.00;95747.09;10483154;28;2714;-70
2022/09/10 21:16:40;;;;;;;;;;;;;;;12.57;100.00;95746.06;10481566;28;3172;-73
2022/09/10 21:21:43;;;;;;;;;;;;;;;12.57;100.00;95748.75;10479847;28;2785;-70
2022/09/10 21:26:46;;;;;;;;;;;13.40;99.90;;;12.60;100.00;95753.59;10488197;28;2744;-72
2022/09/10 21:31:52;;;;;;;;;;;13.40;99.90;;;12.56;100.00;95757.94;10484801;28;2703;-72
2022/09/10 21:36:55;;;;;;;;;;;13.50;99.90;;;12.53;100.00;95755.81;10481718;28;3108;-73
2022/09/10 21:41:58;;;;;;;;;;;13.40;99.90;;;12.47;100.00;95759.63;10483986;28;2757;-73
2022/09/10 21:47:01;;;;;;;;;;;13.00;99.90;;;12.49;100.00;95757.47;10481366;28;2561;-74
2022/09/10 21:52:04;;;;;;;;;;;13.30;99.90;;;12.53;100.00;95762.00;10480247;28;3172;-73
2022/09/10 21:57:10;;;;;;;;;;;13.40;99.90;;;12.56;100.00;95774.13;10481700;28;3377;-71
2022/09/10 22:02:13;;;;;;;;;;;13.30;99.90;;;12.57;100.00;95768.44;10480256;28;3168;-71
2022/09/10 22:07:19;;;;;;;;;;;13.40;99.90;;;12.60;100.00;95772.47;10483326;28;2742;-73
2022/09/10 22:12:27;;;;;;;;;;;13.50;99.90;;;12.61;100.00;95774.06;10484101;28;2802;-72
2022/09/10 22:17:30;;;;;;;;;;;13.60;99.90;;;12.65;100.00;95770.50;10482838;28;3155;-71
2022/09/10 22:22:34;;;;;;;;;;;13.60;99.90;;;12.61;100.00;95764.09;10482167;28;2829;-73
2022/09/10 22:27:37;;;;;;;;;;;13.70;99.90;;;12.64;100.00;95773.50;10469504;28;2771;-76
2022/09/10 22:32:40;;;;;;;;;;;13.50;99.90;;;12.56;100.00;95766.84;10485018;28;2742;-71
2022/09/10 22:37:43;;;;;;;;;;;13.50;99.90;;;12.60;100.00;95757.09;10483503;28;3131;-70
2022/09/10 22:42:46;;;;;;;;;;;13.50;99.90;;;12.63;100.00;95766.50;10481338;28;2762;-70
2022/09/10 22:47:50;;;;;;;;;;;13.50;99.90;;;12.59;100.00;95755.47;10481245;28;2758;-73
2022/09/10 22:52:53;;;;;;;;;;;13.50;99.90;;;12.53;100.00;95758.50;10489334;28;2680;-74
2022/09/10 22:57:55;;;;;;;;;;;13.50;99.90;;;12.54;100.00;95757.44;10490219;28;2721;-71
2022/09/10 23:03:01;;;;;;;;;;;13.40;99.90;;;12.52;100.00;95752.31;10489194;28;2830;-72
2022/09/10 23:08:04;;;;;;;;;;;13.40;99.90;;;12.54;100.00;95760.13;10474052;28;2758;-75